sensor_id;sensor_type;location;lat;lon;timestamp;P1;durP1;ratioP1;P2;durP2;ratioP2
65936;SDS011;52707;52.086;5.418;2023-08-21T00:00:09;8.18;;;1.95;;
65936;SDS011;52707;52.086;5.418;2023-08-21T00:02:36;7.07;;;1.73;;
65936;SDS011;52707;52.086;5.418;2023-08-21T00:05:03;8.32;;;2.20;;
65936;SDS011;52707;52.086;5.418;2023-08-21T00:07:29;6.03;;;2.03;;
65936;SDS011;52707;52.086;5.418;2023-08-21T00:09:56;12.75;;;2.20;;
65936;SDS011;52707;52.086;5.418;2023-08-21T00:12:22;15.02;;;2.90;;
65936;SDS011;52707;52.086;5.418;2023-08-21T00:14:48;6.70;;;2.17;;
65936;SDS011;52707;52.086;5.418;2023-08-21T00:17:15;10.27;;;2.38;;
65936;SDS011;52707;52.086;5.418;2023-08-21T00:19:41;8.93;;;2.60;;
65936;SDS011;52707;52.086;5.418;2023-08-21T00:22:07;14.90;;;2.00;;
65936;SDS011;52707;52.086;5.418;2023-08-21T00:24:34;7.93;;;2.60;;
65936;SDS011;52707;52.086;5.418;2023-08-21T00:27:00;6.78;;;1.95;;
65936;SDS011;52707;52.086;5.418;2023-08-21T00:29:27;10.80;;;2.50;;
65936;SDS011;52707;52.086;5.418;2023-08-21T00:31:53;13.75;;;2.55;;
65936;SDS011;52707;52.086;5.418;2023-08-21T00:34:20;7.57;;;1.98;;
65936;SDS011;52707;52.086;5.418;2023-08-21T00:36:46;6.53;;;2.22;;
65936;SDS011;52707;52.086;5.418;2023-08-21T00:39:13;11.90;;;2.42;;
65936;SDS011;52707;52.086;5.418;2023-08-21T00:41:39;13.00;;;2.03;;
65936;SDS011;52707;52.086;5.418;2023-08-21T00:44:06;6.28;;;2.25;;
65936;SDS011;52707;52.086;5.418;2023-08-21T00:46:32;7.53;;;2.30;;
65936;SDS011;52707;52.086;5.418;2023-08-21T00:48:59;8.77;;;2.10;;
65936;SDS011;52707;52.086;5.418;2023-08-21T00:51:25;9.10;;;2.22;;
65936;SDS011;52707;52.086;5.418;2023-08-21T00:53:52;5.47;;;2.13;;
65936;SDS011;52707;52.086;5.418;2023-08-21T00:56:18;3.63;;;1.83;;
65936;SDS011;52707;52.086;5.418;2023-08-21T00:58:45;10.00;;;2.63;;
65936;SDS011;52707;52.086;5.418;2023-08-21T01:01:12;16.05;;;2.35;;
65936;SDS011;52707;52.086;5.418;2023-08-21T01:03:39;5.97;;;2.00;;
65936;SDS011;52707;52.086;5.418;2023-08-21T01:06:06;5.25;;;1.90;;
65936;SDS011;52707;52.086;5.418;2023-08-21T01:08:40;5.35;;;2.13;;
65936;SDS011;52707;52.086;5.418;2023-08-21T01:11:21;6.82;;;2.25;;
65936;SDS011;52707;52.086;5.418;2023-08-21T01:13:55;6.63;;;2.13;;
65936;SDS011;52707;52.086;5.418;2023-08-21T01:16:24;9.23;;;2.45;;
65936;SDS011;52707;52.086;5.418;2023-08-21T01:18:50;6.63;;;2.10;;
65936;SDS011;52707;52.086;5.418;2023-08-21T01:21:17;5.85;;;1.83;;
65936;SDS011;52707;52.086;5.418;2023-08-21T01:23:44;7.15;;;1.98;;
65936;SDS011;52707;52.086;5.418;2023-08-21T01:26:10;11.60;;;2.53;;
65936;SDS011;52707;52.086;5.418;2023-08-21T01:28:37;7.00;;;2.05;;
65936;SDS011;52707;52.086;5.418;2023-08-21T01:33:30;11.20;;;2.30;;
65936;SDS011;52707;52.086;5.418;2023-08-21T01:35:59;9.07;;;1.73;;
65936;SDS011;52707;52.086;5.418;2023-08-21T01:38:28;8.85;;;2.50;;
65936;SDS011;52707;52.086;5.418;2023-08-21T01:40:55;9.73;;;2.38;;
65936;SDS011;52707;52.086;5.418;2023-08-21T01:43:21;7.63;;;2.05;;
65936;SDS011;52707;52.086;5.418;2023-08-21T01:45:47;11.48;;;2.20;;
65936;SDS011;52707;52.086;5.418;2023-08-21T01:48:14;7.10;;;1.92;;
65936;SDS011;52707;52.086;5.418;2023-08-21T01:50:40;6.05;;;2.28;;
65936;SDS011;52707;52.086;5.418;2023-08-21T01:53:06;5.72;;;2.13;;
65936;SDS011;52707;52.086;5.418;2023-08-21T01:55:33;9.57;;;2.20;;
65936;SDS011;52707;52.086;5.418;2023-08-21T01:57:59;3.00;;;1.58;;
65936;SDS011;52707;52.086;5.418;2023-08-21T02:00:26;7.60;;;1.70;;
65936;SDS011;52707;52.086;5.418;2023-08-21T02:02:52;5.82;;;1.92;;
65936;SDS011;52707;52.086;5.418;2023-08-21T02:05:19;13.10;;;1.98;;
65936;SDS011;52707;52.086;5.418;2023-08-21T02:07:45;6.85;;;2.42;;
65936;SDS011;52707;52.086;5.418;2023-08-21T02:10:12;8.35;;;2.00;;
65936;SDS011;52707;52.086;5.418;2023-08-21T02:12:38;6.97;;;2.15;;
65936;SDS011;52707;52.086;5.418;2023-08-21T02:15:07;4.60;;;1.67;;
65936;SDS011;52707;52.086;5.418;2023-08-21T02:17:33;4.43;;;2.13;;
65936;SDS011;52707;52.086;5.418;2023-08-21T02:20:00;13.85;;;2.33;;
65936;SDS011;52707;52.086;5.418;2023-08-21T02:22:26;4.80;;;2.08;;
65936;SDS011;52707;52.086;5.418;2023-08-21T02:24:53;5.70;;;2.08;;
65936;SDS011;52707;52.086;5.418;2023-08-21T02:27:20;7.70;;;2.47;;
65936;SDS011;52707;52.086;5.418;2023-08-21T02:29:46;5.07;;;2.13;;
65936;SDS011;52707;52.086;5.418;2023-08-21T02:32:13;9.93;;;2.15;;
65936;SDS011;52707;52.086;5.418;2023-08-21T02:34:39;6.15;;;2.08;;
65936;SDS011;52707;52.086;5.418;2023-08-21T02:37:05;7.47;;;2.17;;
65936;SDS011;52707;52.086;5.418;2023-08-21T02:39:32;7.35;;;2.10;;
65936;SDS011;52707;52.086;5.418;2023-08-21T02:41:58;8.15;;;2.22;;
65936;SDS011;52707;52.086;5.418;2023-08-21T02:44:25;9.43;;;1.98;;
65936;SDS011;52707;52.086;5.418;2023-08-21T02:46:51;6.53;;;2.40;;
65936;SDS011;52707;52.086;5.418;2023-08-21T02:49:18;11.88;;;2.50;;
65936;SDS011;52707;52.086;5.418;2023-08-21T02:51:44;4.47;;;2.15;;
65936;SDS011;52707;52.086;5.418;2023-08-21T02:54:11;4.30;;;2.05;;
65936;SDS011;52707;52.086;5.418;2023-08-21T02:56:37;9.00;;;2.65;;
65936;SDS011;52707;52.086;5.418;2023-08-21T02:59:03;16.77;;;3.08;;
65936;SDS011;52707;52.086;5.418;2023-08-21T03:01:30;10.70;;;2.63;;
65936;SDS011;52707;52.086;5.418;2023-08-21T03:03:56;8.88;;;2.40;;
65936;SDS011;52707;52.086;5.418;2023-08-21T03:06:23;8.27;;;2.35;;
65936;SDS011;52707;52.086;5.418;2023-08-21T03:08:49;7.68;;;2.13;;
65936;SDS011;52707;52.086;5.418;2023-08-21T03:11:15;10.45;;;2.85;;
65936;SDS011;52707;52.086;5.418;2023-08-21T03:13:42;7.40;;;2.45;;
65936;SDS011;52707;52.086;5.418;2023-08-21T03:16:08;8.40;;;2.78;;
65936;SDS011;52707;52.086;5.418;2023-08-21T03:18:45;11.85;;;2.47;;
65936;SDS011;52707;52.086;5.418;2023-08-21T03:21:21;13.05;;;3.10;;
65936;SDS011;52707;52.086;5.418;2023-08-21T03:23:50;8.88;;;3.00;;
65936;SDS011;52707;52.086;5.418;2023-08-21T03:26:16;10.07;;;2.85;;
65936;SDS011;52707;52.086;5.418;2023-08-21T03:28:43;10.23;;;2.90;;
65936;SDS011;52707;52.086;5.418;2023-08-21T03:31:09;14.90;;;2.88;;
65936;SDS011;52707;52.086;5.418;2023-08-21T03:33:36;10.10;;;2.30;;
65936;SDS011;52707;52.086;5.418;2023-08-21T03:36:02;6.45;;;2.20;;
65936;SDS011;52707;52.086;5.418;2023-08-21T03:38:29;18.25;;;2.22;;
65936;SDS011;52707;52.086;5.418;2023-08-21T03:40:55;7.43;;;2.15;;
65936;SDS011;52707;52.086;5.418;2023-08-21T03:43:22;8.15;;;2.17;;
65936;SDS011;52707;52.086;5.418;2023-08-21T03:45:48;6.28;;;2.22;;
65936;SDS011;52707;52.086;5.418;2023-08-21T03:48:15;11.77;;;2.80;;
65936;SDS011;52707;52.086;5.418;2023-08-21T03:50:41;10.15;;;2.78;;
65936;SDS011;52707;52.086;5.418;2023-08-21T03:53:08;4.60;;;2.58;;
65936;SDS011;52707;52.086;5.418;2023-08-21T03:55:34;6.65;;;2.30;;
65936;SDS011;52707;52.086;5.418;2023-08-21T03:58:00;6.72;;;1.90;;
65936;SDS011;52707;52.086;5.418;2023-08-21T04:00:27;8.57;;;2.70;;
65936;SDS011;52707;52.086;5.418;2023-08-21T04:02:53;6.95;;;2.72;;
65936;SDS011;52707;52.086;5.418;2023-08-21T04:05:20;8.48;;;2.22;;
65936;SDS011;52707;52.086;5.418;2023-08-21T04:07:46;6.30;;;2.65;;
65936;SDS011;52707;52.086;5.418;2023-08-21T04:10:13;4.88;;;2.35;;
65936;SDS011;52707;52.086;5.418;2023-08-21T04:12:39;4.35;;;2.33;;
65936;SDS011;52707;52.086;5.418;2023-08-21T04:15:07;7.13;;;2.55;;
65936;SDS011;52707;52.086;5.418;2023-08-21T04:17:33;4.82;;;2.30;;
65936;SDS011;52707;52.086;5.418;2023-08-21T04:20:00;9.35;;;2.78;;
65936;SDS011;52707;52.086;5.418;2023-08-21T04:22:26;6.47;;;2.47;;
65936;SDS011;52707;52.086;5.418;2023-08-21T04:24:52;6.28;;;2.33;;
65936;SDS011;52707;52.086;5.418;2023-08-21T04:27:19;4.93;;;2.20;;
65936;SDS011;52707;52.086;5.418;2023-08-21T04:29:45;10.13;;;2.80;;
65936;SDS011;52707;52.086;5.418;2023-08-21T04:32:11;5.50;;;2.20;;
65936;SDS011;52707;52.086;5.418;2023-08-21T04:34:38;9.10;;;2.38;;
65936;SDS011;52707;52.086;5.418;2023-08-21T04:37:04;7.45;;;2.53;;
65936;SDS011;52707;52.086;5.418;2023-08-21T04:39:31;7.82;;;2.40;;
65936;SDS011;52707;52.086;5.418;2023-08-21T04:41:57;8.73;;;2.15;;
65936;SDS011;52707;52.086;5.418;2023-08-21T04:44:24;6.15;;;2.17;;
65936;SDS011;52707;52.086;5.418;2023-08-21T04:46:50;8.07;;;2.00;;
65936;SDS011;52707;52.086;5.418;2023-08-21T04:49:17;11.45;;;2.55;;
65936;SDS011;52707;52.086;5.418;2023-08-21T04:51:43;7.20;;;2.10;;
65936;SDS011;52707;52.086;5.418;2023-08-21T04:54:10;8.27;;;2.20;;
65936;SDS011;52707;52.086;5.418;2023-08-21T04:56:36;9.13;;;2.42;;
65936;SDS011;52707;52.086;5.418;2023-08-21T04:59:02;6.85;;;2.58;;
65936;SDS011;52707;52.086;5.418;2023-08-21T05:01:29;11.90;;;2.38;;
65936;SDS011;52707;52.086;5.418;2023-08-21T05:03:55;6.47;;;2.38;;
65936;SDS011;52707;52.086;5.418;2023-08-21T05:06:22;7.38;;;2.30;;
65936;SDS011;52707;52.086;5.418;2023-08-21T05:08:48;12.38;;;2.53;;
65936;SDS011;52707;52.086;5.418;2023-08-21T05:11:14;8.20;;;2.55;;
65936;SDS011;52707;52.086;5.418;2023-08-21T05:13:41;12.32;;;2.58;;
65936;SDS011;52707;52.086;5.418;2023-08-21T05:16:07;5.93;;;2.13;;
65936;SDS011;52707;52.086;5.418;2023-08-21T05:18:34;11.32;;;2.70;;
65936;SDS011;52707;52.086;5.418;2023-08-21T05:21:01;12.38;;;2.25;;
65936;SDS011;52707;52.086;5.418;2023-08-21T05:23:27;12.75;;;2.08;;
65936;SDS011;52707;52.086;5.418;2023-08-21T05:25:54;8.50;;;2.90;;
65936;SDS011;52707;52.086;5.418;2023-08-21T05:28:20;9.13;;;2.25;;
65936;SDS011;52707;52.086;5.418;2023-08-21T05:30:47;7.18;;;2.67;;
65936;SDS011;52707;52.086;5.418;2023-08-21T05:33:15;7.63;;;2.65;;
65936;SDS011;52707;52.086;5.418;2023-08-21T05:35:41;8.40;;;2.53;;
65936;SDS011;52707;52.086;5.418;2023-08-21T05:38:07;6.63;;;2.25;;
65936;SDS011;52707;52.086;5.418;2023-08-21T05:40:34;8.43;;;2.90;;
65936;SDS011;52707;52.086;5.418;2023-08-21T05:43:00;7.22;;;1.83;;
65936;SDS011;52707;52.086;5.418;2023-08-21T05:45:26;5.10;;;2.72;;
65936;SDS011;52707;52.086;5.418;2023-08-21T05:47:53;5.93;;;2.50;;
65936;SDS011;52707;52.086;5.418;2023-08-21T05:50:20;9.88;;;2.83;;
65936;SDS011;52707;52.086;5.418;2023-08-21T05:52:46;11.98;;;2.97;;
65936;SDS011;52707;52.086;5.418;2023-08-21T05:55:12;8.43;;;2.40;;
65936;SDS011;52707;52.086;5.418;2023-08-21T05:57:39;11.32;;;2.85;;
65936;SDS011;52707;52.086;5.418;2023-08-21T06:00:05;9.38;;;2.30;;
65936;SDS011;52707;52.086;5.418;2023-08-21T06:02:34;9.27;;;3.03;;
65936;SDS011;52707;52.086;5.418;2023-08-21T06:05:01;10.00;;;2.70;;
65936;SDS011;52707;52.086;5.418;2023-08-21T06:07:29;8.65;;;2.60;;
65936;SDS011;52707;52.086;5.418;2023-08-21T06:09:55;9.57;;;2.92;;
65936;SDS011;52707;52.086;5.418;2023-08-21T06:12:22;14.07;;;3.58;;
65936;SDS011;52707;52.086;5.418;2023-08-21T06:14:48;12.25;;;3.25;;
65936;SDS011;52707;52.086;5.418;2023-08-21T06:17:15;6.18;;;2.90;;
65936;SDS011;52707;52.086;5.418;2023-08-21T06:19:41;12.18;;;3.45;;
65936;SDS011;52707;52.086;5.418;2023-08-21T06:22:07;13.15;;;3.15;;
65936;SDS011;52707;52.086;5.418;2023-08-21T06:24:34;8.15;;;3.13;;
65936;SDS011;52707;52.086;5.418;2023-08-21T06:27:00;7.68;;;2.95;;
65936;SDS011;52707;52.086;5.418;2023-08-21T06:29:26;10.85;;;2.80;;
65936;SDS011;52707;52.086;5.418;2023-08-21T06:31:53;6.00;;;2.97;;
65936;SDS011;52707;52.086;5.418;2023-08-21T06:34:19;8.50;;;2.88;;
65936;SDS011;52707;52.086;5.418;2023-08-21T06:36:46;14.45;;;3.63;;
65936;SDS011;52707;52.086;5.418;2023-08-21T06:39:12;10.02;;;3.40;;
65936;SDS011;52707;52.086;5.418;2023-08-21T06:41:38;19.13;;;4.13;;
65936;SDS011;52707;52.086;5.418;2023-08-21T06:44:05;12.25;;;3.60;;
65936;SDS011;52707;52.086;5.418;2023-08-21T06:46:31;13.18;;;3.30;;
65936;SDS011;52707;52.086;5.418;2023-08-21T06:48:58;17.98;;;4.28;;
65936;SDS011;52707;52.086;5.418;2023-08-21T06:51:24;12.82;;;3.70;;
65936;SDS011;52707;52.086;5.418;2023-08-21T06:53:50;17.02;;;4.63;;
65936;SDS011;52707;52.086;5.418;2023-08-21T06:56:17;24.67;;;5.05;;
65936;SDS011;52707;52.086;5.418;2023-08-21T06:58:43;28.70;;;4.07;;
65936;SDS011;52707;52.086;5.418;2023-08-21T07:01:10;16.58;;;4.15;;
65936;SDS011;52707;52.086;5.418;2023-08-21T07:03:36;18.80;;;4.15;;
65936;SDS011;52707;52.086;5.418;2023-08-21T07:06:03;19.17;;;3.80;;
65936;SDS011;52707;52.086;5.418;2023-08-21T07:08:29;21.38;;;4.13;;
65936;SDS011;52707;52.086;5.418;2023-08-21T07:10:55;18.15;;;3.42;;
65936;SDS011;52707;52.086;5.418;2023-08-21T07:13:22;11.82;;;3.13;;
65936;SDS011;52707;52.086;5.418;2023-08-21T07:15:48;13.57;;;3.20;;
65936;SDS011;52707;52.086;5.418;2023-08-21T07:18:18;14.93;;;4.17;;
65936;SDS011;52707;52.086;5.418;2023-08-21T07:20:45;21.48;;;4.57;;
65936;SDS011;52707;52.086;5.418;2023-08-21T07:23:11;12.52;;;3.50;;
65936;SDS011;52707;52.086;5.418;2023-08-21T07:25:37;8.82;;;2.95;;
65936;SDS011;52707;52.086;5.418;2023-08-21T07:28:04;12.98;;;3.30;;
65936;SDS011;52707;52.086;5.418;2023-08-21T07:30:30;11.27;;;3.47;;
65936;SDS011;52707;52.086;5.418;2023-08-21T07:32:59;18.65;;;3.78;;
65936;SDS011;52707;52.086;5.418;2023-08-21T07:35:25;16.95;;;3.38;;
65936;SDS011;52707;52.086;5.418;2023-08-21T07:37:52;16.60;;;3.42;;
65936;SDS011;52707;52.086;5.418;2023-08-21T07:40:18;16.85;;;3.03;;
65936;SDS011;52707;52.086;5.418;2023-08-21T07:42:45;22.13;;;4.63;;
65936;SDS011;52707;52.086;5.418;2023-08-21T07:45:11;16.40;;;3.45;;
65936;SDS011;52707;52.086;5.418;2023-08-21T07:47:37;17.05;;;3.65;;
65936;SDS011;52707;52.086;5.418;2023-08-21T07:50:05;16.15;;;3.88;;
65936;SDS011;52707;52.086;5.418;2023-08-21T07:52:31;13.05;;;3.25;;
65936;SDS011;52707;52.086;5.418;2023-08-21T07:54:58;13.68;;;3.42;;
65936;SDS011;52707;52.086;5.418;2023-08-21T07:57:27;13.50;;;2.97;;
65936;SDS011;52707;52.086;5.418;2023-08-21T07:59:54;8.52;;;2.65;;
65936;SDS011;52707;52.086;5.418;2023-08-21T08:02:21;12.27;;;3.00;;
65936;SDS011;52707;52.086;5.418;2023-08-21T08:04:47;17.25;;;4.15;;
65936;SDS011;52707;52.086;5.418;2023-08-21T08:07:14;16.08;;;3.35;;
65936;SDS011;52707;52.086;5.418;2023-08-21T08:09:40;14.35;;;3.70;;
65936;SDS011;52707;52.086;5.418;2023-08-21T08:12:07;20.23;;;4.43;;
65936;SDS011;52707;52.086;5.418;2023-08-21T08:14:34;12.13;;;3.30;;
65936;SDS011;52707;52.086;5.418;2023-08-21T08:17:01;14.93;;;3.20;;
65936;SDS011;52707;52.086;5.418;2023-08-21T08:19:27;13.13;;;3.45;;
65936;SDS011;52707;52.086;5.418;2023-08-21T08:21:54;13.80;;;3.80;;
65936;SDS011;52707;52.086;5.418;2023-08-21T08:24:20;12.07;;;2.65;;
65936;SDS011;52707;52.086;5.418;2023-08-21T08:26:47;7.43;;;1.85;;
65936;SDS011;52707;52.086;5.418;2023-08-21T08:29:13;15.43;;;2.28;;
65936;SDS011;52707;52.086;5.418;2023-08-21T08:31:39;10.05;;;1.75;;
65936;SDS011;52707;52.086;5.418;2023-08-21T08:34:06;7.13;;;1.70;;
65936;SDS011;52707;52.086;5.418;2023-08-21T08:36:32;10.50;;;1.95;;
65936;SDS011;52707;52.086;5.418;2023-08-21T08:38:59;7.20;;;2.53;;
65936;SDS011;52707;52.086;5.418;2023-08-21T08:41:30;9.70;;;2.08;;
65936;SDS011;52707;52.086;5.418;2023-08-21T08:43:59;10.88;;;2.03;;
65936;SDS011;52707;52.086;5.418;2023-08-21T08:46:25;7.85;;;1.85;;
65936;SDS011;52707;52.086;5.418;2023-08-21T08:48:53;11.75;;;1.88;;
65936;SDS011;52707;52.086;5.418;2023-08-21T08:51:20;8.18;;;2.00;;
65936;SDS011;52707;52.086;5.418;2023-08-21T08:53:47;9.90;;;2.15;;
65936;SDS011;52707;52.086;5.418;2023-08-21T08:56:13;9.93;;;1.95;;
65936;SDS011;52707;52.086;5.418;2023-08-21T08:58:40;9.73;;;1.92;;
65936;SDS011;52707;52.086;5.418;2023-08-21T09:01:09;8.50;;;2.30;;
65936;SDS011;52707;52.086;5.418;2023-08-21T09:03:37;13.35;;;1.60;;
65936;SDS011;52707;52.086;5.418;2023-08-21T09:06:03;4.68;;;1.55;;
65936;SDS011;52707;52.086;5.418;2023-08-21T09:08:30;7.30;;;1.80;;
65936;SDS011;52707;52.086;5.418;2023-08-21T09:10:56;10.65;;;1.98;;
65936;SDS011;52707;52.086;5.418;2023-08-21T09:13:26;4.85;;;1.40;;
65936;SDS011;52707;52.086;5.418;2023-08-21T09:15:53;8.57;;;1.67;;
65936;SDS011;52707;52.086;5.418;2023-08-21T09:18:20;6.90;;;2.05;;
65936;SDS011;52707;52.086;5.418;2023-08-21T09:20:47;18.48;;;2.10;;
65936;SDS011;52707;52.086;5.418;2023-08-21T09:23:14;8.15;;;1.73;;
65936;SDS011;52707;52.086;5.418;2023-08-21T09:25:41;8.95;;;1.45;;
65936;SDS011;52707;52.086;5.418;2023-08-21T09:28:10;6.57;;;1.87;;
65936;SDS011;52707;52.086;5.418;2023-08-21T09:31:10;13.85;;;1.77;;
65936;SDS011;52707;52.086;5.418;2023-08-21T09:33:29;7.78;;;1.90;;
65936;SDS011;52707;52.086;5.418;2023-08-21T09:35:56;8.00;;;1.55;;
65936;SDS011;52707;52.086;5.418;2023-08-21T09:38:22;10.07;;;1.70;;
65936;SDS011;52707;52.086;5.418;2023-08-21T09:40:52;8.45;;;2.13;;
65936;SDS011;52707;52.086;5.418;2023-08-21T09:43:20;8.60;;;1.83;;
65936;SDS011;52707;52.086;5.418;2023-08-21T09:45:48;6.88;;;1.63;;
65936;SDS011;52707;52.086;5.418;2023-08-21T09:48:14;5.93;;;1.50;;
65936;SDS011;52707;52.086;5.418;2023-08-21T09:50:41;6.05;;;1.73;;
65936;SDS011;52707;52.086;5.418;2023-08-21T09:53:12;16.45;;;2.53;;
65936;SDS011;52707;52.086;5.418;2023-08-21T09:55:38;7.70;;;2.00;;
65936;SDS011;52707;52.086;5.418;2023-08-21T09:58:05;5.97;;;1.73;;
65936;SDS011;52707;52.086;5.418;2023-08-21T10:00:33;7.60;;;1.48;;
65936;SDS011;52707;52.086;5.418;2023-08-21T10:03:04;10.30;;;2.03;;
65936;SDS011;52707;52.086;5.418;2023-08-21T10:05:31;3.45;;;1.30;;
65936;SDS011;52707;52.086;5.418;2023-08-21T10:08:01;6.93;;;2.15;;
65936;SDS011;52707;52.086;5.418;2023-08-21T10:10:33;5.38;;;1.48;;
65936;SDS011;52707;52.086;5.418;2023-08-21T10:13:00;6.75;;;1.73;;
65936;SDS011;52707;52.086;5.418;2023-08-21T10:15:27;9.57;;;1.70;;
65936;SDS011;52707;52.086;5.418;2023-08-21T10:17:54;8.18;;;1.98;;
65936;SDS011;52707;52.086;5.418;2023-08-21T10:20:21;6.32;;;1.73;;
65936;SDS011;52707;52.086;5.418;2023-08-21T10:22:49;9.18;;;1.48;;
65936;SDS011;52707;52.086;5.418;2023-08-21T10:25:22;8.93;;;2.10;;
65936;SDS011;52707;52.086;5.418;2023-08-21T10:27:50;6.90;;;1.73;;
65936;SDS011;52707;52.086;5.418;2023-08-21T10:30:20;13.07;;;1.88;;
65936;SDS011;52707;52.086;5.418;2023-08-21T10:32:48;6.90;;;1.40;;
65936;SDS011;52707;52.086;5.418;2023-08-21T10:35:15;6.35;;;1.30;;
65936;SDS011;52707;52.086;5.418;2023-08-21T10:40:27;3.88;;;1.13;;
65936;SDS011;52707;52.086;5.418;2023-08-21T10:42:54;7.63;;;1.55;;
65936;SDS011;52707;52.086;5.418;2023-08-21T10:45:20;6.80;;;1.45;;
65936;SDS011;52707;52.086;5.418;2023-08-21T10:47:47;5.07;;;1.20;;
65936;SDS011;52707;52.086;5.418;2023-08-21T10:50:15;6.07;;;1.60;;
65936;SDS011;52707;52.086;5.418;2023-08-21T10:52:42;5.18;;;1.58;;
65936;SDS011;52707;52.086;5.418;2023-08-21T10:55:11;4.63;;;1.20;;
65936;SDS011;52707;52.086;5.418;2023-08-21T10:57:38;5.72;;;1.48;;
65936;SDS011;52707;52.086;5.418;2023-08-21T11:00:11;4.80;;;0.80;;
65936;SDS011;52707;52.086;5.418;2023-08-21T11:02:39;8.95;;;1.90;;
65936;SDS011;52707;52.086;5.418;2023-08-21T11:05:06;20.05;;;1.58;;
65936;SDS011;52707;52.086;5.418;2023-08-21T11:07:38;8.75;;;1.60;;
65936;SDS011;52707;52.086;5.418;2023-08-21T11:10:06;8.15;;;2.42;;
65936;SDS011;52707;52.086;5.418;2023-08-21T11:12:37;12.18;;;1.80;;
65936;SDS011;52707;52.086;5.418;2023-08-21T11:15:04;8.38;;;1.73;;
65936;SDS011;52707;52.086;5.418;2023-08-21T11:17:31;5.10;;;1.50;;
65936;SDS011;52707;52.086;5.418;2023-08-21T11:20:00;7.38;;;1.60;;
65936;SDS011;52707;52.086;5.418;2023-08-21T11:22:31;6.47;;;1.75;;
65936;SDS011;52707;52.086;5.418;2023-08-21T11:24:58;4.00;;;1.30;;
65936;SDS011;52707;52.086;5.418;2023-08-21T11:27:24;5.20;;;1.20;;
65936;SDS011;52707;52.086;5.418;2023-08-21T11:29:51;5.82;;;1.30;;
65936;SDS011;52707;52.086;5.418;2023-08-21T11:32:18;5.68;;;1.48;;
65936;SDS011;52707;52.086;5.418;2023-08-21T11:34:52;5.30;;;1.45;;
65936;SDS011;52707;52.086;5.418;2023-08-21T11:37:21;9.40;;;2.15;;
65936;SDS011;52707;52.086;5.418;2023-08-21T11:39:48;8.75;;;1.63;;
65936;SDS011;52707;52.086;5.418;2023-08-21T11:42:15;10.52;;;1.35;;
65936;SDS011;52707;52.086;5.418;2023-08-21T11:44:43;5.63;;;1.45;;
65936;SDS011;52707;52.086;5.418;2023-08-21T11:47:11;8.60;;;1.92;;
65936;SDS011;52707;52.086;5.418;2023-08-21T11:49:40;6.43;;;1.48;;
65936;SDS011;52707;52.086;5.418;2023-08-21T11:52:10;10.70;;;1.70;;
65936;SDS011;52707;52.086;5.418;2023-08-21T11:54:37;5.03;;;1.30;;
65936;SDS011;52707;52.086;5.418;2023-08-21T11:57:05;8.70;;;1.98;;
65936;SDS011;52707;52.086;5.418;2023-08-21T11:59:31;4.20;;;1.20;;
65936;SDS011;52707;52.086;5.418;2023-08-21T12:01:57;5.75;;;1.35;;
65936;SDS011;52707;52.086;5.418;2023-08-21T12:04:24;5.10;;;1.58;;
65936;SDS011;52707;52.086;5.418;2023-08-21T12:06:52;4.50;;;1.30;;
65936;SDS011;52707;52.086;5.418;2023-08-21T12:09:18;2.95;;;0.90;;
65936;SDS011;52707;52.086;5.418;2023-08-21T12:11:47;6.70;;;1.00;;
65936;SDS011;52707;52.086;5.418;2023-08-21T12:14:14;2.10;;;0.75;;
65936;SDS011;52707;52.086;5.418;2023-08-21T12:16:40;3.92;;;0.70;;
65936;SDS011;52707;52.086;5.418;2023-08-21T12:19:07;5.80;;;1.00;;
65936;SDS011;52707;52.086;5.418;2023-08-21T12:21:35;2.33;;;0.90;;
65936;SDS011;52707;52.086;5.418;2023-08-21T12:24:04;3.20;;;0.70;;
65936;SDS011;52707;52.086;5.418;2023-08-21T12:26:32;5.07;;;1.10;;
65936;SDS011;52707;52.086;5.418;2023-08-21T12:29:14;6.72;;;1.35;;
65936;SDS011;52707;52.086;5.418;2023-08-21T12:31:41;3.00;;;1.20;;
65936;SDS011;52707;52.086;5.418;2023-08-21T12:34:07;4.97;;;1.17;;
65936;SDS011;52707;52.086;5.418;2023-08-21T12:36:35;2.90;;;1.10;;
65936;SDS011;52707;52.086;5.418;2023-08-21T12:39:03;7.40;;;1.63;;
65936;SDS011;52707;52.086;5.418;2023-08-21T12:41:30;4.07;;;1.02;;
65936;SDS011;52707;52.086;5.418;2023-08-21T12:43:56;2.88;;;0.90;;
65936;SDS011;52707;52.086;5.418;2023-08-21T12:46:22;7.72;;;1.05;;
65936;SDS011;52707;52.086;5.418;2023-08-21T12:48:49;3.85;;;0.98;;
65936;SDS011;52707;52.086;5.418;2023-08-21T12:51:16;6.28;;;1.30;;
65936;SDS011;52707;52.086;5.418;2023-08-21T12:53:42;2.25;;;1.10;;
65936;SDS011;52707;52.086;5.418;2023-08-21T12:56:08;4.82;;;1.13;;
65936;SDS011;52707;52.086;5.418;2023-08-21T12:58:35;4.15;;;0.98;;
65936;SDS011;52707;52.086;5.418;2023-08-21T13:01:01;7.65;;;1.45;;
65936;SDS011;52707;52.086;5.418;2023-08-21T13:03:29;2.75;;;1.10;;
65936;SDS011;52707;52.086;5.418;2023-08-21T13:05:56;7.18;;;1.70;;
65936;SDS011;52707;52.086;5.418;2023-08-21T13:08:22;8.32;;;1.60;;
65936;SDS011;52707;52.086;5.418;2023-08-21T13:10:48;6.97;;;1.40;;
65936;SDS011;52707;52.086;5.418;2023-08-21T13:13:15;5.50;;;1.85;;
65936;SDS011;52707;52.086;5.418;2023-08-21T13:15:41;5.22;;;1.15;;
65936;SDS011;52707;52.086;5.418;2023-08-21T13:18:10;7.07;;;1.45;;
65936;SDS011;52707;52.086;5.418;2023-08-21T13:20:38;9.25;;;1.73;;
65936;SDS011;52707;52.086;5.418;2023-08-21T13:23:04;9.35;;;1.90;;
65936;SDS011;52707;52.086;5.418;2023-08-21T13:25:30;10.77;;;1.58;;
65936;SDS011;52707;52.086;5.418;2023-08-21T13:27:57;19.83;;;4.10;;
65936;SDS011;52707;52.086;5.418;2023-08-21T13:30:23;5.90;;;2.28;;
65936;SDS011;52707;52.086;5.418;2023-08-21T13:32:50;9.02;;;1.83;;
65936;SDS011;52707;52.086;5.418;2023-08-21T13:35:16;3.63;;;1.38;;
65936;SDS011;52707;52.086;5.418;2023-08-21T13:37:43;7.32;;;1.48;;
65936;SDS011;52707;52.086;5.418;2023-08-21T13:40:10;4.40;;;1.55;;
65936;SDS011;52707;52.086;5.418;2023-08-21T13:42:42;5.80;;;1.63;;
65936;SDS011;52707;52.086;5.418;2023-08-21T13:45:09;4.70;;;1.50;;
65936;SDS011;52707;52.086;5.418;2023-08-21T13:47:39;6.82;;;2.03;;
65936;SDS011;52707;52.086;5.418;2023-08-21T13:50:07;4.88;;;1.63;;
65936;SDS011;52707;52.086;5.418;2023-08-21T13:52:34;5.45;;;1.77;;
65936;SDS011;52707;52.086;5.418;2023-08-21T13:55:01;2.83;;;1.25;;
65936;SDS011;52707;52.086;5.418;2023-08-21T13:57:28;3.92;;;1.27;;
65936;SDS011;52707;52.086;5.418;2023-08-21T13:59:55;4.28;;;1.23;;
65936;SDS011;52707;52.086;5.418;2023-08-21T14:02:21;9.48;;;1.48;;
65936;SDS011;52707;52.086;5.418;2023-08-21T14:04:49;3.58;;;1.05;;
65936;SDS011;52707;52.086;5.418;2023-08-21T14:07:16;3.90;;;1.15;;
65936;SDS011;52707;52.086;5.418;2023-08-21T14:09:42;5.72;;;1.33;;
65936;SDS011;52707;52.086;5.418;2023-08-21T14:12:09;9.05;;;1.50;;
65936;SDS011;52707;52.086;5.418;2023-08-21T14:14:35;5.28;;;1.65;;
65936;SDS011;52707;52.086;5.418;2023-08-21T14:17:02;6.80;;;1.50;;
65936;SDS011;52707;52.086;5.418;2023-08-21T14:19:30;4.40;;;1.10;;
65936;SDS011;52707;52.086;5.418;2023-08-21T14:21:59;9.95;;;1.30;;
65936;SDS011;52707;52.086;5.418;2023-08-21T14:24:26;2.50;;;1.20;;
65936;SDS011;52707;52.086;5.418;2023-08-21T14:26:53;6.65;;;1.40;;
65936;SDS011;52707;52.086;5.418;2023-08-21T14:29:19;5.38;;;1.48;;
65936;SDS011;52707;52.086;5.418;2023-08-21T14:31:45;2.80;;;0.85;;
65936;SDS011;52707;52.086;5.418;2023-08-21T14:34:13;4.97;;;1.23;;
65936;SDS011;52707;52.086;5.418;2023-08-21T14:36:40;6.90;;;1.40;;
65936;SDS011;52707;52.086;5.418;2023-08-21T14:39:07;4.30;;;1.33;;
65936;SDS011;52707;52.086;5.418;2023-08-21T14:41:34;8.18;;;1.33;;
65936;SDS011;52707;52.086;5.418;2023-08-21T14:44:00;4.80;;;1.20;;
65936;SDS011;52707;52.086;5.418;2023-08-21T14:46:26;6.72;;;1.35;;